sensor_id;sensor_type;location;lat;lon;timestamp;P1;durP1;ratioP1;P2;durP2;ratioP2
77061;SDS011;65989;51.686;5.138;2023-12-14T00:00:12;33.92;;;14.50;;
77061;SDS011;65989;51.686;5.138;2023-12-14T00:02:38;30.20;;;13.77;;
77061;SDS011;65989;51.686;5.138;2023-12-14T00:05:04;34.40;;;15.73;;
77061;SDS011;65989;51.686;5.138;2023-12-14T00:07:29;33.17;;;14.60;;
77061;SDS011;65989;51.686;5.138;2023-12-14T00:09:55;32.10;;;14.57;;
77061;SDS011;65989;51.686;5.138;2023-12-14T00:12:20;36.33;;;14.70;;
77061;SDS011;65989;51.686;5.138;2023-12-14T00:14:45;34.40;;;15.20;;
77061;SDS011;65989;51.686;5.138;2023-12-14T00:17:11;33.50;;;14.20;;
77061;SDS011;65989;51.686;5.138;2023-12-14T00:19:36;30.67;;;13.83;;
77061;SDS011;65989;51.686;5.138;2023-12-14T00:22:01;34.17;;;14.43;;
77061;SDS011;65989;51.686;5.138;2023-12-14T00:24:27;33.17;;;14.40;;
77061;SDS011;65989;51.686;5.138;2023-12-14T00:26:52;28.63;;;13.17;;
77061;SDS011;65989;51.686;5.138;2023-12-14T00:29:18;28.63;;;12.80;;
77061;SDS011;65989;51.686;5.138;2023-12-14T00:31:43;28.53;;;12.90;;
77061;SDS011;65989;51.686;5.138;2023-12-14T00:34:08;27.20;;;12.37;;
77061;SDS011;65989;51.686;5.138;2023-12-14T00:36:34;29.58;;;13.00;;
77061;SDS011;65989;51.686;5.138;2023-12-14T00:38:59;24.93;;;11.43;;
77061;SDS011;65989;51.686;5.138;2023-12-14T00:41:25;24.93;;;11.33;;
77061;SDS011;65989;51.686;5.138;2023-12-14T00:43:50;25.20;;;11.63;;
77061;SDS011;65989;51.686;5.138;2023-12-14T00:46:15;20.90;;;9.37;;
77061;SDS011;65989;51.686;5.138;2023-12-14T00:48:41;20.87;;;10.60;;
77061;SDS011;65989;51.686;5.138;2023-12-14T00:51:06;22.77;;;10.97;;
77061;SDS011;65989;51.686;5.138;2023-12-14T00:53:31;24.50;;;10.43;;
77061;SDS011;65989;51.686;5.138;2023-12-14T00:55:57;20.63;;;10.57;;
77061;SDS011;65989;51.686;5.138;2023-12-14T00:58:23;22.17;;;10.07;;
77061;SDS011;65989;51.686;5.138;2023-12-14T01:00:48;17.57;;;8.77;;
77061;SDS011;65989;51.686;5.138;2023-12-14T01:03:13;17.13;;;8.07;;
77061;SDS011;65989;51.686;5.138;2023-12-14T01:05:39;15.83;;;8.20;;
77061;SDS011;65989;51.686;5.138;2023-12-14T01:08:04;21.50;;;9.73;;
77061;SDS011;65989;51.686;5.138;2023-12-14T01:10:30;21.23;;;11.07;;
77061;SDS011;65989;51.686;5.138;2023-12-14T01:12:56;23.55;;;11.07;;
77061;SDS011;65989;51.686;5.138;2023-12-14T01:15:21;25.27;;;12.43;;
77061;SDS011;65989;51.686;5.138;2023-12-14T01:17:46;24.00;;;11.27;;
77061;SDS011;65989;51.686;5.138;2023-12-14T01:20:12;19.03;;;9.70;;
77061;SDS011;65989;51.686;5.138;2023-12-14T01:22:37;23.90;;;11.43;;
77061;SDS011;65989;51.686;5.138;2023-12-14T01:25:03;24.33;;;10.93;;
77061;SDS011;65989;51.686;5.138;2023-12-14T01:27:28;23.37;;;10.77;;
77061;SDS011;65989;51.686;5.138;2023-12-14T01:29:54;24.17;;;11.27;;
77061;SDS011;65989;51.686;5.138;2023-12-14T01:32:20;20.67;;;10.37;;
77061;SDS011;65989;51.686;5.138;2023-12-14T01:34:45;21.63;;;10.17;;
77061;SDS011;65989;51.686;5.138;2023-12-14T01:39:46;24.27;;;12.13;;
77061;SDS011;65989;51.686;5.138;2023-12-14T01:42:12;25.42;;;11.23;;
77061;SDS011;65989;51.686;5.138;2023-12-14T01:44:38;24.35;;;11.73;;
77061;SDS011;65989;51.686;5.138;2023-12-14T01:47:04;27.63;;;12.20;;
77061;SDS011;65989;51.686;5.138;2023-12-14T01:49:29;23.60;;;11.57;;
77061;SDS011;65989;51.686;5.138;2023-12-14T01:51:54;23.10;;;10.77;;
77061;SDS011;65989;51.686;5.138;2023-12-14T01:54:20;21.40;;;10.80;;
77061;SDS011;65989;51.686;5.138;2023-12-14T01:56:45;18.73;;;8.63;;
77061;SDS011;65989;51.686;5.138;2023-12-14T01:59:11;21.23;;;10.77;;
77061;SDS011;65989;51.686;5.138;2023-12-14T02:04:07;21.33;;;10.65;;
77061;SDS011;65989;51.686;5.138;2023-12-14T02:06:33;22.40;;;11.13;;
77061;SDS011;65989;51.686;5.138;2023-12-14T02:08:59;21.55;;;11.52;;
77061;SDS011;65989;51.686;5.138;2023-12-14T02:11:24;17.17;;;9.17;;
77061;SDS011;65989;51.686;5.138;2023-12-14T02:13:49;21.63;;;10.37;;
77061;SDS011;65989;51.686;5.138;2023-12-14T02:16:15;21.23;;;11.17;;
77061;SDS011;65989;51.686;5.138;2023-12-14T02:18:40;22.80;;;11.53;;
77061;SDS011;65989;51.686;5.138;2023-12-14T02:21:06;20.42;;;10.85;;
77061;SDS011;65989;51.686;5.138;2023-12-14T02:23:31;22.87;;;12.00;;
77061;SDS011;65989;51.686;5.138;2023-12-14T02:25:57;23.97;;;10.23;;
77061;SDS011;65989;51.686;5.138;2023-12-14T02:28:22;22.13;;;10.80;;
77061;SDS011;65989;51.686;5.138;2023-12-14T02:30:47;20.48;;;11.55;;
77061;SDS011;65989;51.686;5.138;2023-12-14T02:33:13;21.23;;;11.30;;
77061;SDS011;65989;51.686;5.138;2023-12-14T02:35:38;20.77;;;11.03;;
77061;SDS011;65989;51.686;5.138;2023-12-14T02:38:04;23.97;;;11.47;;
77061;SDS011;65989;51.686;5.138;2023-12-14T02:40:29;25.73;;;12.30;;
77061;SDS011;65989;51.686;5.138;2023-12-14T02:42:54;22.33;;;11.65;;
77061;SDS011;65989;51.686;5.138;2023-12-14T02:45:20;20.77;;;10.50;;
77061;SDS011;65989;51.686;5.138;2023-12-14T02:47:45;21.03;;;11.63;;
77061;SDS011;65989;51.686;5.138;2023-12-14T02:50:12;21.80;;;11.57;;
77061;SDS011;65989;51.686;5.138;2023-12-14T02:52:38;20.13;;;11.30;;
77061;SDS011;65989;51.686;5.138;2023-12-14T02:55:04;19.05;;;10.82;;
77061;SDS011;65989;51.686;5.138;2023-12-14T02:57:29;20.23;;;10.10;;
77061;SDS011;65989;51.686;5.138;2023-12-14T02:59:55;20.17;;;9.80;;
77061;SDS011;65989;51.686;5.138;2023-12-14T03:02:20;19.55;;;10.98;;
77061;SDS011;65989;51.686;5.138;2023-12-14T03:04:46;19.97;;;11.23;;
77061;SDS011;65989;51.686;5.138;2023-12-14T03:07:11;18.87;;;10.23;;
77061;SDS011;65989;51.686;5.138;2023-12-14T03:09:39;20.33;;;10.70;;
77061;SDS011;65989;51.686;5.138;2023-12-14T03:12:06;20.83;;;10.70;;
77061;SDS011;65989;51.686;5.138;2023-12-14T03:14:32;21.67;;;11.90;;
77061;SDS011;65989;51.686;5.138;2023-12-14T03:16:58;20.98;;;11.55;;
77061;SDS011;65989;51.686;5.138;2023-12-14T03:19:24;21.90;;;12.23;;
77061;SDS011;65989;51.686;5.138;2023-12-14T03:21:49;21.30;;;11.20;;
77061;SDS011;65989;51.686;5.138;2023-12-14T03:24:15;22.07;;;11.17;;
77061;SDS011;65989;51.686;5.138;2023-12-14T03:26:43;20.50;;;11.98;;
77061;SDS011;65989;51.686;5.138;2023-12-14T03:29:08;21.37;;;12.00;;
77061;SDS011;65989;51.686;5.138;2023-12-14T03:31:34;22.17;;;12.13;;
77061;SDS011;65989;51.686;5.138;2023-12-14T03:34:00;27.98;;;12.70;;
77061;SDS011;65989;51.686;5.138;2023-12-14T03:36:26;24.23;;;12.40;;
77061;SDS011;65989;51.686;5.138;2023-12-14T03:38:51;23.93;;;12.53;;
77061;SDS011;65989;51.686;5.138;2023-12-14T03:41:17;21.63;;;12.20;;
77061;SDS011;65989;51.686;5.138;2023-12-14T03:43:42;24.13;;;11.97;;
77061;SDS011;65989;51.686;5.138;2023-12-14T03:46:09;22.25;;;11.57;;
77061;SDS011;65989;51.686;5.138;2023-12-14T03:48:37;22.80;;;12.33;;
77061;SDS011;65989;51.686;5.138;2023-12-14T03:51:03;21.73;;;11.45;;
77061;SDS011;65989;51.686;5.138;2023-12-14T03:53:31;23.10;;;12.03;;
77061;SDS011;65989;51.686;5.138;2023-12-14T03:55:58;23.20;;;12.35;;
77061;SDS011;65989;51.686;5.138;2023-12-14T03:58:23;23.05;;;11.82;;
77061;SDS011;65989;51.686;5.138;2023-12-14T04:00:49;22.23;;;12.17;;
77061;SDS011;65989;51.686;5.138;2023-12-14T04:03:14;23.53;;;12.40;;
77061;SDS011;65989;51.686;5.138;2023-12-14T04:05:40;21.03;;;12.10;;
77061;SDS011;65989;51.686;5.138;2023-12-14T04:08:05;24.05;;;11.88;;
77061;SDS011;65989;51.686;5.138;2023-12-14T04:10:31;23.93;;;12.23;;
77061;SDS011;65989;51.686;5.138;2023-12-14T04:12:56;23.50;;;11.57;;
77061;SDS011;65989;51.686;5.138;2023-12-14T04:15:22;21.30;;;11.57;;
77061;SDS011;65989;51.686;5.138;2023-12-14T04:17:47;21.07;;;11.13;;
77061;SDS011;65989;51.686;5.138;2023-12-14T04:20:13;23.17;;;12.37;;
77061;SDS011;65989;51.686;5.138;2023-12-14T04:22:40;22.30;;;12.75;;
77061;SDS011;65989;51.686;5.138;2023-12-14T04:25:06;22.37;;;12.47;;
77061;SDS011;65989;51.686;5.138;2023-12-14T04:27:32;24.27;;;12.50;;
77061;SDS011;65989;51.686;5.138;2023-12-14T04:29:58;21.50;;;12.65;;
77061;SDS011;65989;51.686;5.138;2023-12-14T04:32:23;26.17;;;13.27;;
77061;SDS011;65989;51.686;5.138;2023-12-14T04:34:49;23.80;;;13.00;;
77061;SDS011;65989;51.686;5.138;2023-12-14T04:37:14;23.53;;;12.50;;
77061;SDS011;65989;51.686;5.138;2023-12-14T04:39:39;23.95;;;12.85;;
77061;SDS011;65989;51.686;5.138;2023-12-14T04:42:05;21.13;;;11.50;;
77061;SDS011;65989;51.686;5.138;2023-12-14T04:44:30;24.77;;;12.33;;
77061;SDS011;65989;51.686;5.138;2023-12-14T04:46:56;21.27;;;12.20;;
77061;SDS011;65989;51.686;5.138;2023-12-14T04:49:21;21.63;;;12.23;;
77061;SDS011;65989;51.686;5.138;2023-12-14T04:51:46;21.87;;;11.10;;
77061;SDS011;65989;51.686;5.138;2023-12-14T04:54:12;21.03;;;11.07;;
77061;SDS011;65989;51.686;5.138;2023-12-14T04:56:37;21.87;;;11.97;;
77061;SDS011;65989;51.686;5.138;2023-12-14T04:59:02;21.57;;;12.00;;
77061;SDS011;65989;51.686;5.138;2023-12-14T05:01:31;19.60;;;10.97;;
77061;SDS011;65989;51.686;5.138;2023-12-14T05:03:56;20.77;;;12.20;;
77061;SDS011;65989;51.686;5.138;2023-12-14T05:06:25;22.45;;;11.82;;
77061;SDS011;65989;51.686;5.138;2023-12-14T05:08:51;21.37;;;12.13;;
77061;SDS011;65989;51.686;5.138;2023-12-14T05:11:16;24.08;;;12.75;;
77061;SDS011;65989;51.686;5.138;2023-12-14T05:13:41;23.17;;;12.83;;
77061;SDS011;65989;51.686;5.138;2023-12-14T05:16:12;22.13;;;11.73;;
77061;SDS011;65989;51.686;5.138;2023-12-14T05:18:38;25.60;;;12.38;;
77061;SDS011;65989;51.686;5.138;2023-12-14T05:21:04;22.50;;;11.88;;
77061;SDS011;65989;51.686;5.138;2023-12-14T05:23:29;24.53;;;12.43;;
77061;SDS011;65989;51.686;5.138;2023-12-14T05:25:55;22.93;;;11.93;;
77061;SDS011;65989;51.686;5.138;2023-12-14T05:28:20;22.70;;;11.77;;
77061;SDS011;65989;51.686;5.138;2023-12-14T05:30:45;20.67;;;10.57;;
77061;SDS011;65989;51.686;5.138;2023-12-14T05:33:11;25.03;;;12.87;;
77061;SDS011;65989;51.686;5.138;2023-12-14T05:35:36;27.53;;;12.43;;
77061;SDS011;65989;51.686;5.138;2023-12-14T05:38:02;25.37;;;13.10;;
77061;SDS011;65989;51.686;5.138;2023-12-14T05:40:27;26.50;;;12.87;;
77061;SDS011;65989;51.686;5.138;2023-12-14T05:42:52;26.73;;;12.97;;
77061;SDS011;65989;51.686;5.138;2023-12-14T05:45:19;28.95;;;12.43;;
77061;SDS011;65989;51.686;5.138;2023-12-14T05:47:45;26.43;;;11.70;;
77061;SDS011;65989;51.686;5.138;2023-12-14T05:50:10;24.65;;;12.00;;
77061;SDS011;65989;51.686;5.138;2023-12-14T05:52:36;27.80;;;11.57;;
77061;SDS011;65989;51.686;5.138;2023-12-14T05:55:03;29.92;;;11.52;;
77061;SDS011;65989;51.686;5.138;2023-12-14T05:57:29;22.10;;;10.88;;
77061;SDS011;65989;51.686;5.138;2023-12-14T05:59:54;26.63;;;10.53;;
77061;SDS011;65989;51.686;5.138;2023-12-14T06:02:19;26.30;;;12.10;;
77061;SDS011;65989;51.686;5.138;2023-12-14T06:04:45;22.33;;;10.97;;
77061;SDS011;65989;51.686;5.138;2023-12-14T06:07:10;25.08;;;10.43;;
77061;SDS011;65989;51.686;5.138;2023-12-14T06:09:36;25.77;;;10.63;;
77061;SDS011;65989;51.686;5.138;2023-12-14T06:12:02;22.50;;;10.30;;
77061;SDS011;65989;51.686;5.138;2023-12-14T06:14:28;25.33;;;11.57;;
77061;SDS011;65989;51.686;5.138;2023-12-14T06:16:53;28.00;;;11.13;;
77061;SDS011;65989;51.686;5.138;2023-12-14T06:19:19;24.07;;;10.47;;
77061;SDS011;65989;51.686;5.138;2023-12-14T06:21:44;25.80;;;11.17;;
77061;SDS011;65989;51.686;5.138;2023-12-14T06:24:10;20.53;;;9.37;;
77061;SDS011;65989;51.686;5.138;2023-12-14T06:26:40;23.35;;;10.20;;
77061;SDS011;65989;51.686;5.138;2023-12-14T06:29:09;21.90;;;9.27;;
77061;SDS011;65989;51.686;5.138;2023-12-14T06:31:35;17.85;;;8.48;;
77061;SDS011;65989;51.686;5.138;2023-12-14T06:34:00;21.85;;;9.18;;
77061;SDS011;65989;51.686;5.138;2023-12-14T06:36:28;19.50;;;8.37;;
77061;SDS011;65989;51.686;5.138;2023-12-14T06:38:55;21.92;;;9.13;;
77061;SDS011;65989;51.686;5.138;2023-12-14T06:41:21;24.00;;;10.10;;
77061;SDS011;65989;51.686;5.138;2023-12-14T06:43:47;18.15;;;8.20;;
77061;SDS011;65989;51.686;5.138;2023-12-14T06:46:13;18.40;;;8.83;;
77061;SDS011;65989;51.686;5.138;2023-12-14T06:48:39;19.23;;;9.65;;
77061;SDS011;65989;51.686;5.138;2023-12-14T06:51:05;16.77;;;8.90;;
77061;SDS011;65989;51.686;5.138;2023-12-14T06:53:30;17.95;;;8.43;;
77061;SDS011;65989;51.686;5.138;2023-12-14T06:55:55;17.90;;;8.47;;
77061;SDS011;65989;51.686;5.138;2023-12-14T06:58:21;18.97;;;8.37;;
77061;SDS011;65989;51.686;5.138;2023-12-14T07:00:46;16.80;;;8.33;;
77061;SDS011;65989;51.686;5.138;2023-12-14T07:03:12;15.70;;;8.50;;
77061;SDS011;65989;51.686;5.138;2023-12-14T07:05:38;15.77;;;8.23;;
77061;SDS011;65989;51.686;5.138;2023-12-14T07:08:04;17.73;;;9.00;;
77061;SDS011;65989;51.686;5.138;2023-12-14T07:10:29;20.43;;;8.77;;
77061;SDS011;65989;51.686;5.138;2023-12-14T07:12:55;16.73;;;8.30;;
77061;SDS011;65989;51.686;5.138;2023-12-14T07:15:20;15.13;;;8.37;;
77061;SDS011;65989;51.686;5.138;2023-12-14T07:17:46;16.53;;;8.60;;
77061;SDS011;65989;51.686;5.138;2023-12-14T07:20:11;17.03;;;8.90;;
77061;SDS011;65989;51.686;5.138;2023-12-14T07:22:37;18.05;;;8.98;;
77061;SDS011;65989;51.686;5.138;2023-12-14T07:25:03;14.67;;;8.43;;
77061;SDS011;65989;51.686;5.138;2023-12-14T07:27:29;17.17;;;9.00;;
77061;SDS011;65989;51.686;5.138;2023-12-14T07:29:54;18.10;;;9.67;;
77061;SDS011;65989;51.686;5.138;2023-12-14T07:32:20;15.63;;;8.63;;
77061;SDS011;65989;51.686;5.138;2023-12-14T07:34:46;16.52;;;9.05;;
77061;SDS011;65989;51.686;5.138;2023-12-14T07:37:11;16.70;;;8.03;;
77061;SDS011;65989;51.686;5.138;2023-12-14T07:39:37;18.37;;;9.07;;
77061;SDS011;65989;51.686;5.138;2023-12-14T07:42:02;17.15;;;9.50;;
77061;SDS011;65989;51.686;5.138;2023-12-14T07:44:28;21.83;;;9.23;;
77061;SDS011;65989;51.686;5.138;2023-12-14T07:46:55;21.55;;;9.57;;
77061;SDS011;65989;51.686;5.138;2023-12-14T07:49:21;14.82;;;8.65;;
77061;SDS011;65989;51.686;5.138;2023-12-14T07:51:48;18.20;;;9.43;;
77061;SDS011;65989;51.686;5.138;2023-12-14T07:54:14;18.85;;;9.48;;
77061;SDS011;65989;51.686;5.138;2023-12-14T07:56:39;19.20;;;8.83;;
77061;SDS011;65989;51.686;5.138;2023-12-14T07:59:05;14.57;;;8.02;;
77061;SDS011;65989;51.686;5.138;2023-12-14T08:01:32;15.10;;;8.32;;
77061;SDS011;65989;51.686;5.138;2023-12-14T08:03:58;15.17;;;7.83;;
77061;SDS011;65989;51.686;5.138;2023-12-14T08:06:24;17.13;;;8.52;;
77061;SDS011;65989;51.686;5.138;2023-12-14T08:08:49;17.13;;;9.03;;
77061;SDS011;65989;51.686;5.138;2023-12-14T08:11:18;18.02;;;9.00;;
77061;SDS011;65989;51.686;5.138;2023-12-14T08:13:43;15.50;;;8.20;;
77061;SDS011;65989;51.686;5.138;2023-12-14T08:16:09;15.43;;;9.03;;
77061;SDS011;65989;51.686;5.138;2023-12-14T08:18:36;15.73;;;8.70;;
77061;SDS011;65989;51.686;5.138;2023-12-14T08:21:01;16.87;;;8.33;;
77061;SDS011;65989;51.686;5.138;2023-12-14T08:23:27;14.50;;;8.07;;
77061;SDS011;65989;51.686;5.138;2023-12-14T08:25:55;15.07;;;8.93;;
77061;SDS011;65989;51.686;5.138;2023-12-14T08:28:24;18.05;;;9.13;;
77061;SDS011;65989;51.686;5.138;2023-12-14T08:30:50;19.03;;;9.40;;
77061;SDS011;65989;51.686;5.138;2023-12-14T08:33:16;17.40;;;9.07;;
77061;SDS011;65989;51.686;5.138;2023-12-14T08:35:41;19.43;;;9.70;;
77061;SDS011;65989;51.686;5.138;2023-12-14T08:38:07;16.13;;;9.18;;
77061;SDS011;65989;51.686;5.138;2023-12-14T08:40:32;15.37;;;8.40;;
77061;SDS011;65989;51.686;5.138;2023-12-14T08:42:57;14.87;;;8.80;;
77061;SDS011;65989;51.686;5.138;2023-12-14T08:45:23;21.97;;;9.80;;
77061;SDS011;65989;51.686;5.138;2023-12-14T08:47:48;17.05;;;9.50;;
77061;SDS011;65989;51.686;5.138;2023-12-14T08:50:14;15.97;;;8.77;;
77061;SDS011;65989;51.686;5.138;2023-12-14T08:52:39;15.90;;;8.67;;
77061;SDS011;65989;51.686;5.138;2023-12-14T08:55:05;15.20;;;8.00;;
77061;SDS011;65989;51.686;5.138;2023-12-14T08:57:31;15.63;;;8.98;;
77061;SDS011;65989;51.686;5.138;2023-12-14T08:59:56;17.10;;;10.00;;
77061;SDS011;65989;51.686;5.138;2023-12-14T09:02:21;15.75;;;9.23;;
77061;SDS011;65989;51.686;5.138;2023-12-14T09:04:47;15.57;;;8.83;;
77061;SDS011;65989;51.686;5.138;2023-12-14T09:07:12;15.67;;;7.70;;
77061;SDS011;65989;51.686;5.138;2023-12-14T09:09:38;13.47;;;6.97;;
77061;SDS011;65989;51.686;5.138;2023-12-14T09:12:03;13.00;;;7.87;;
77061;SDS011;65989;51.686;5.138;2023-12-14T09:14:29;12.75;;;7.50;;
77061;SDS011;65989;51.686;5.138;2023-12-14T09:16:54;13.23;;;7.13;;
77061;SDS011;65989;51.686;5.138;2023-12-14T09:19:20;14.05;;;6.80;;
77061;SDS011;65989;51.686;5.138;2023-12-14T09:21:46;11.50;;;6.70;;
77061;SDS011;65989;51.686;5.138;2023-12-14T09:24:11;13.23;;;7.30;;
77061;SDS011;65989;51.686;5.138;2023-12-14T09:26:36;12.07;;;6.70;;
77061;SDS011;65989;51.686;5.138;2023-12-14T09:29:02;15.33;;;7.13;;
77061;SDS011;65989;51.686;5.138;2023-12-14T09:31:27;14.03;;;7.27;;
77061;SDS011;65989;51.686;5.138;2023-12-14T09:33:53;11.97;;;6.70;;
77061;SDS011;65989;51.686;5.138;2023-12-14T09:36:18;12.03;;;6.77;;
77061;SDS011;65989;51.686;5.138;2023-12-14T09:38:44;16.33;;;7.23;;
77061;SDS011;65989;51.686;5.138;2023-12-14T09:41:10;14.10;;;6.70;;
77061;SDS011;65989;51.686;5.138;2023-12-14T09:43:37;14.40;;;7.07;;
77061;SDS011;65989;51.686;5.138;2023-12-14T09:46:02;11.40;;;6.50;;
77061;SDS011;65989;51.686;5.138;2023-12-14T09:48:29;13.50;;;7.60;;
77061;SDS011;65989;51.686;5.138;2023-12-14T09:50:54;12.48;;;6.95;;
77061;SDS011;65989;51.686;5.138;2023-12-14T09:53:20;17.90;;;8.17;;
77061;SDS011;65989;51.686;5.138;2023-12-14T09:55:45;14.40;;;8.03;;
77061;SDS011;65989;51.686;5.138;2023-12-14T09:58:11;12.73;;;6.97;;
77061;SDS011;65989;51.686;5.138;2023-12-14T10:00:38;13.37;;;7.17;;
77061;SDS011;65989;51.686;5.138;2023-12-14T10:03:27;15.88;;;9.30;;
77061;SDS011;65989;51.686;5.138;2023-12-14T10:05:56;13.23;;;7.00;;
77061;SDS011;65989;51.686;5.138;2023-12-14T10:08:23;12.18;;;7.45;;
77061;SDS011;65989;51.686;5.138;2023-12-14T10:10:50;18.15;;;9.60;;
77061;SDS011;65989;51.686;5.138;2023-12-14T10:13:36;15.20;;;7.50;;
77061;SDS011;65989;51.686;5.138;2023-12-14T10:16:03;18.60;;;9.32;;
77061;SDS011;65989;51.686;5.138;2023-12-14T10:18:28;16.38;;;8.40;;
77061;SDS011;65989;51.686;5.138;2023-12-14T10:20:56;17.38;;;9.20;;
77061;SDS011;65989;51.686;5.138;2023-12-14T10:23:22;17.50;;;9.30;;
77061;SDS011;65989;51.686;5.138;2023-12-14T10:25:47;14.10;;;8.27;;
77061;SDS011;65989;51.686;5.138;2023-12-14T10:28:13;13.20;;;7.57;;
77061;SDS011;65989;51.686;5.138;2023-12-14T10:30:39;14.00;;;8.13;;
77061;SDS011;65989;51.686;5.138;2023-12-14T10:33:05;15.57;;;9.17;;
77061;SDS011;65989;51.686;5.138;2023-12-14T10:35:31;13.87;;;9.27;;
77061;SDS011;65989;51.686;5.138;2023-12-14T10:37:58;13.10;;;8.23;;
77061;SDS011;65989;51.686;5.138;2023-12-14T10:40:26;13.20;;;7.95;;
77061;SDS011;65989;51.686;5.138;2023-12-14T10:42:53;12.47;;;7.50;;
77061;SDS011;65989;51.686;5.138;2023-12-14T10:45:21;14.25;;;8.25;;
77061;SDS011;65989;51.686;5.138;2023-12-14T10:47:52;15.95;;;7.38;;
77061;SDS011;65989;51.686;5.138;2023-12-14T10:50:18;11.30;;;7.78;;
77061;SDS011;65989;51.686;5.138;2023-12-14T10:52:44;13.25;;;7.68;;
77061;SDS011;65989;51.686;5.138;2023-12-14T10:55:33;15.10;;;7.47;;
77061;SDS011;65989;51.686;5.138;2023-12-14T10:57:58;12.95;;;7.57;;
77061;SDS011;65989;51.686;5.138;2023-12-14T11:00:24;12.67;;;7.30;;
77061;SDS011;65989;51.686;5.138;2023-12-14T11:02:49;13.05;;;7.32;;
77061;SDS011;65989;51.686;5.138;2023-12-14T11:05:17;13.40;;;7.90;;
77061;SDS011;65989;51.686;5.138;2023-12-14T11:07:52;12.27;;;7.25;;
77061;SDS011;65989;51.686;5.138;2023-12-14T11:10:23;12.73;;;8.25;;
77061;SDS011;65989;51.686;5.138;2023-12-14T11:13:01;12.20;;;7.50;;
77061;SDS011;65989;51.686;5.138;2023-12-14T11:15:38;11.52;;;6.72;;
77061;SDS011;65989;51.686;5.138;2023-12-14T11:20:46;12.43;;;7.78;;
77061;SDS011;65989;51.686;5.138;2023-12-14T11:23:17;11.88;;;7.55;;
77061;SDS011;65989;51.686;5.138;2023-12-14T11:25:52;13.80;;;7.72;;
77061;SDS011;65989;51.686;5.138;2023-12-14T11:28:19;13.23;;;8.18;;
77061;SDS011;65989;51.686;5.138;2023-12-14T11:30:45;11.93;;;7.60;;
77061;SDS011;65989;51.686;5.138;2023-12-14T11:33:12;12.75;;;7.40;;
77061;SDS011;65989;51.686;5.138;2023-12-14T11:35:38;13.73;;;7.63;;
77061;SDS011;65989;51.686;5.138;2023-12-14T11:38:03;14.77;;;8.17;;
77061;SDS011;65989;51.686;5.138;2023-12-14T11:40:35;13.07;;;8.13;;
77061;SDS011;65989;51.686;5.138;2023-12-14T11:43:01;14.65;;;8.05;;
77061;SDS011;65989;51.686;5.138;2023-12-14T11:45:35;13.93;;;7.93;;
77061;SDS011;65989;51.686;5.138;2023-12-14T11:48:02;14.40;;;7.90;;
77061;SDS011;65989;51.686;5.138;2023-12-14T11:50:30;14.45;;;7.80;;
77061;SDS011;65989;51.686;5.138;2023-12-14T11:53:02;12.65;;;7.22;;
77061;SDS011;65989;51.686;5.138;2023-12-14T11:55:35;13.90;;;8.02;;
77061;SDS011;65989;51.686;5.138;2023-12-14T11:58:02;13.60;;;8.18;;
77061;SDS011;65989;51.686;5.138;2023-12-14T12:00:28;14.27;;;7.83;;
77061;SDS011;65989;51.686;5.138;2023-12-14T12:08:06;13.60;;;7.80;;
77061;SDS011;65989;51.686;5.138;2023-12-14T12:10:32;13.63;;;8.27;;
77061;SDS011;65989;51.686;5.138;2023-12-14T12:13:02;12.93;;;7.70;;
77061;SDS011;65989;51.686;5.138;2023-12-14T12:15:34;11.97;;;7.37;;
77061;SDS011;65989;51.686;5.138;2023-12-14T12:18:02;14.40;;;6.53;;
77061;SDS011;65989;51.686;5.138;2023-12-14T12:20:29;16.85;;;7.78;;
77061;SDS011;65989;51.686;5.138;2023-12-14T12:22:54;13.40;;;7.63;;
77061;SDS011;65989;51.686;5.138;2023-12-14T12:25:19;13.90;;;8.03;;
77061;SDS011;65989;51.686;5.138;2023-12-14T12:27:45;13.23;;;7.70;;
77061;SDS011;65989;51.686;5.138;2023-12-14T12:30:12;14.57;;;7.68;;
77061;SDS011;65989;51.686;5.138;2023-12-14T12:32:38;14.00;;;7.80;;
77061;SDS011;65989;51.686;5.138;2023-12-14T12:35:04;15.40;;;8.00;;
77061;SDS011;65989;51.686;5.138;2023-12-14T12:37:30;15.00;;;7.90;;
77061;SDS011;65989;51.686;5.138;2023-12-14T12:39:55;12.13;;;7.10;;
77061;SDS011;65989;51.686;5.138;2023-12-14T12:42:20;14.43;;;7.10;;
77061;SDS011;65989;51.686;5.138;2023-12-14T12:44:48;15.35;;;8.60;;
77061;SDS011;65989;51.686;5.138;2023-12-14T12:47:13;13.70;;;8.47;;
77061;SDS011;65989;51.686;5.138;2023-12-14T12:49:39;15.73;;;7.65;;
77061;SDS011;65989;51.686;5.138;2023-12-14T12:52:04;14.13;;;8.30;;
77061;SDS011;65989;51.686;5.138;2023-12-14T12:54:33;16.60;;;8.17;;
77061;SDS011;65989;51.686;5.138;2023-12-14T12:56:59;15.18;;;7.72;;
77061;SDS011;65989;51.686;5.138;2023-12-14T12:59:24;14.57;;;8.03;;
77061;SDS011;65989;51.686;5.138;2023-12-14T13:01:50;13.30;;;7.97;;
77061;SDS011;65989;51.686;5.138;2023-12-14T13:04:19;12.90;;;7.77;;
77061;SDS011;65989;51.686;5.138;2023-12-14T13:06:47;14.50;;;7.85;;
77061;SDS011;65989;51.686;5.138;2023-12-14T13:09:16;14.00;;;7.70;;
77061;SDS011;65989;51.686;5.138;2023-12-14T13:11:45;15.40;;;8.32;;
77061;SDS011;65989;51.686;5.138;2023-12-14T13:14:11;14.17;;;8.23;;
77061;SDS011;65989;51.686;5.138;2023-12-14T13:16:36;17.65;;;8.93;;
77061;SDS011;65989;51.686;5.138;2023-12-14T13:19:02;14.63;;;7.60;;
77061;SDS011;65989;51.686;5.138;2023-12-14T13:21:29;15.38;;;8.60;;
77061;SDS011;65989;51.686;5.138;2023-12-14T13:23:59;14.40;;;7.75;;
77061;SDS011;65989;51.686;5.138;2023-12-14T13:26:24;13.90;;;8.23;;
77061;SDS011;65989;51.686;5.138;2023-12-14T13:28:53;18.87;;;8.77;;
77061;SDS011;65989;51.686;5.138;2023-12-14T13:31:19;13.80;;;8.15;;
77061;SDS011;65989;51.686;5.138;2023-12-14T13:33:48;16.27;;;8.60;;
77061;SDS011;65989;51.686;5.138;2023-12-14T13:36:15;13.37;;;7.50;;
77061;SDS011;65989;51.686;5.138;2023-12-14T13:38:41;12.25;;;7.32;;
77061;SDS011;65989;51.686;5.138;2023-12-14T13:41:07;13.53;;;7.20;;
77061;SDS011;65989;51.686;5.138;2023-12-14T13:43:35;14.52;;;7.75;;
77061;SDS011;65989;51.686;5.138;2023-12-14T13:46:00;14.50;;;7.43;;
77061;SDS011;65989;51.686;5.138;2023-12-14T13:48:27;14.70;;;7.80;;
77061;SDS011;65989;51.686;5.138;2023-12-14T13:50:53;15.70;;;7.97;;
77061;SDS011;65989;51.686;5.138;2023-12-14T13:53:19;13.73;;;7.20;;
77061;SDS011;65989;51.686;5.138;2023-12-14T13:55:45;16.77;;;8.15;;
77061;SDS011;65989;51.686;5.138;2023-12-14T13:58:11;13.75;;;8.18;;
77061;SDS011;65989;51.686;5.138;2023-12-14T14:00:37;18.05;;;8.45;;
77061;SDS011;65989;51.686;5.138;2023-12-14T14:03:02;16.80;;;8.47;;
77061;SDS011;65989;51.686;5.138;2023-12-14T14:05:29;14.73;;;8.80;;
77061;SDS011;65989;51.686;5.138;2023-12-14T14:07:56;15.60;;;9.10;;
77061;SDS011;65989;51.686;5.138;2023-12-14T14:10:22;15.70;;;8.60;;
77061;SDS011;65989;51.686;5.138;2023-12-14T14:12:47;15.45;;;8.20;;
77061;SDS011;65989;51.686;5.138;2023-12-14T14:15:14;15.57;;;7.67;;
77061;SDS011;65989;51.686;5.138;2023-12-14T14:17:39;17.50;;;7.85;;
77061;SDS011;65989;51.686;5.138;2023-12-14T14:20:05;15.27;;;7.83;;
77061;SDS011;65989;51.686;5.138;2023-12-14T14:22:32;14.32;;;7.80;;
77061;SDS011;65989;51.686;5.138;2023-12-14T14:24:58;12.30;;;7.05;;
77061;SDS011;65989;51.686;5.138;2023-12-14T14:27:23;13.60;;;8.03;;
77061;SDS011;65989;51.686;5.138;2023-12-14T14:29:52;16.03;;;8.20;;
77061;SDS011;65989;51.686;5.138;2023-12-14T14:32:20;14.57;;;8.18;;
77061;SDS011;65989;51.686;5.138;2023-12-14T14:34:46;16.57;;;8.40;;